sensor_id;sensor_type;location;lat;lon;timestamp;P1;durP1;ratioP1;P2;durP2;ratioP2
3369;SDS011;42042;51.948;7.628;2022-12-13T00:00:39;64.93;;;38.40;;
3369;SDS011;42042;51.948;7.628;2022-12-13T00:03:07;75.28;;;36.40;;
3369;SDS011;42042;51.948;7.628;2022-12-13T00:05:34;68.10;;;32.85;;
3369;SDS011;42042;51.948;7.628;2022-12-13T00:08:08;70.25;;;39.33;;
3369;SDS011;42042;51.948;7.628;2022-12-13T00:10:35;69.20;;;36.70;;
3369;SDS011;42042;51.948;7.628;2022-12-13T00:13:04;69.72;;;37.55;;
3369;SDS011;42042;51.948;7.628;2022-12-13T00:15:31;69.00;;;36.65;;
3369;SDS011;42042;51.948;7.628;2022-12-13T00:17:58;62.15;;;34.70;;
3369;SDS011;42042;51.948;7.628;2022-12-13T00:20:25;70.00;;;36.78;;
3369;SDS011;42042;51.948;7.628;2022-12-13T00:22:52;67.65;;;37.97;;
3369;SDS011;42042;51.948;7.628;2022-12-13T00:25:20;77.70;;;36.58;;
3369;SDS011;42042;51.948;7.628;2022-12-13T00:27:47;66.68;;;36.15;;
3369;SDS011;42042;51.948;7.628;2022-12-13T00:30:15;73.60;;;36.72;;
3369;SDS011;42042;51.948;7.628;2022-12-13T00:32:42;62.33;;;35.75;;
3369;SDS011;42042;51.948;7.628;2022-12-13T00:35:10;69.90;;;35.50;;
3369;SDS011;42042;51.948;7.628;2022-12-13T00:37:37;75.97;;;35.50;;
3369;SDS011;42042;51.948;7.628;2022-12-13T00:40:05;68.60;;;34.47;;
3369;SDS011;42042;51.948;7.628;2022-12-13T00:42:33;75.13;;;39.85;;
3369;SDS011;42042;51.948;7.628;2022-12-13T00:45:00;66.13;;;36.65;;
3369;SDS011;42042;51.948;7.628;2022-12-13T00:47:29;86.90;;;38.47;;
3369;SDS011;42042;51.948;7.628;2022-12-13T00:49:56;74.70;;;37.45;;
3369;SDS011;42042;51.948;7.628;2022-12-13T00:52:24;85.90;;;41.15;;
3369;SDS011;42042;51.948;7.628;2022-12-13T00:54:51;89.57;;;42.75;;
3369;SDS011;42042;51.948;7.628;2022-12-13T00:57:18;95.45;;;40.53;;
3369;SDS011;42042;51.948;7.628;2022-12-13T00:59:45;91.32;;;45.78;;
3369;SDS011;42042;51.948;7.628;2022-12-13T01:02:12;86.55;;;40.05;;
3369;SDS011;42042;51.948;7.628;2022-12-13T01:04:41;93.20;;;46.53;;
3369;SDS011;42042;51.948;7.628;2022-12-13T01:07:08;89.45;;;40.78;;
3369;SDS011;42042;51.948;7.628;2022-12-13T01:09:35;86.32;;;41.88;;
3369;SDS011;42042;51.948;7.628;2022-12-13T01:12:04;87.07;;;40.72;;
3369;SDS011;42042;51.948;7.628;2022-12-13T01:14:33;80.75;;;40.42;;
3369;SDS011;42042;51.948;7.628;2022-12-13T01:17:00;82.65;;;39.67;;
3369;SDS011;42042;51.948;7.628;2022-12-13T01:19:27;75.57;;;37.72;;
3369;SDS011;42042;51.948;7.628;2022-12-13T01:21:56;81.75;;;39.08;;
3369;SDS011;42042;51.948;7.628;2022-12-13T01:24:23;84.13;;;37.10;;
3369;SDS011;42042;51.948;7.628;2022-12-13T01:26:51;64.65;;;33.72;;
3369;SDS011;42042;51.948;7.628;2022-12-13T01:29:19;76.28;;;37.88;;
3369;SDS011;42042;51.948;7.628;2022-12-13T01:31:46;70.43;;;36.55;;
3369;SDS011;42042;51.948;7.628;2022-12-13T01:34:14;69.40;;;37.95;;
3369;SDS011;42042;51.948;7.628;2022-12-13T01:36:42;82.70;;;40.25;;
3369;SDS011;42042;51.948;7.628;2022-12-13T01:39:12;74.53;;;38.65;;
3369;SDS011;42042;51.948;7.628;2022-12-13T01:41:40;81.63;;;39.70;;
3369;SDS011;42042;51.948;7.628;2022-12-13T01:46:49;71.05;;;40.40;;
3369;SDS011;42042;51.948;7.628;2022-12-13T01:49:16;79.07;;;40.40;;
3369;SDS011;42042;51.948;7.628;2022-12-13T01:51:45;82.63;;;40.88;;
3369;SDS011;42042;51.948;7.628;2022-12-13T01:54:15;80.07;;;40.08;;
3369;SDS011;42042;51.948;7.628;2022-12-13T01:56:43;86.05;;;41.47;;
3369;SDS011;42042;51.948;7.628;2022-12-13T01:59:13;85.32;;;40.70;;
3369;SDS011;42042;51.948;7.628;2022-12-13T02:01:41;101.80;;;39.75;;
3369;SDS011;42042;51.948;7.628;2022-12-13T02:04:08;102.78;;;38.55;;
3369;SDS011;42042;51.948;7.628;2022-12-13T02:06:36;77.93;;;36.22;;
3369;SDS011;42042;51.948;7.628;2022-12-13T02:09:05;67.95;;;33.47;;
3369;SDS011;42042;51.948;7.628;2022-12-13T02:11:34;77.40;;;34.83;;
3369;SDS011;42042;51.948;7.628;2022-12-13T02:14:02;70.75;;;32.45;;
3369;SDS011;42042;51.948;7.628;2022-12-13T02:16:34;72.40;;;35.33;;
3369;SDS011;42042;51.948;7.628;2022-12-13T02:19:09;68.10;;;32.40;;
3369;SDS011;42042;51.948;7.628;2022-12-13T02:21:41;53.22;;;31.25;;
3369;SDS011;42042;51.948;7.628;2022-12-13T02:24:26;66.68;;;33.65;;
3369;SDS011;42042;51.948;7.628;2022-12-13T02:27:10;71.20;;;31.98;;
3369;SDS011;42042;51.948;7.628;2022-12-13T02:32:27;83.53;;;32.60;;
3369;SDS011;42042;51.948;7.628;2022-12-13T02:34:56;62.35;;;28.95;;
3369;SDS011;42042;51.948;7.628;2022-12-13T02:37:28;57.92;;;28.75;;
3369;SDS011;42042;51.948;7.628;2022-12-13T02:39:59;65.10;;;30.13;;
3369;SDS011;42042;51.948;7.628;2022-12-13T02:42:28;61.63;;;30.10;;
3369;SDS011;42042;51.948;7.628;2022-12-13T02:44:59;60.20;;;31.90;;
3369;SDS011;42042;51.948;7.628;2022-12-13T02:47:30;53.60;;;30.15;;
3369;SDS011;42042;51.948;7.628;2022-12-13T02:49:58;50.47;;;28.80;;
3369;SDS011;42042;51.948;7.628;2022-12-13T02:52:26;49.72;;;27.50;;
3369;SDS011;42042;51.948;7.628;2022-12-13T02:54:55;48.92;;;27.80;;
3369;SDS011;42042;51.948;7.628;2022-12-13T02:57:27;49.00;;;28.60;;
3369;SDS011;42042;51.948;7.628;2022-12-13T02:59:54;49.53;;;29.05;;
3369;SDS011;42042;51.948;7.628;2022-12-13T03:02:23;49.75;;;26.58;;
3369;SDS011;42042;51.948;7.628;2022-12-13T03:04:55;51.00;;;27.95;;
3369;SDS011;42042;51.948;7.628;2022-12-13T03:07:47;58.20;;;27.48;;
3369;SDS011;42042;51.948;7.628;2022-12-13T03:10:17;54.70;;;29.20;;
3369;SDS011;42042;51.948;7.628;2022-12-13T03:12:48;53.60;;;28.77;;
3369;SDS011;42042;51.948;7.628;2022-12-13T03:15:36;51.15;;;28.50;;
3369;SDS011;42042;51.948;7.628;2022-12-13T03:18:06;56.42;;;29.73;;
3369;SDS011;42042;51.948;7.628;2022-12-13T03:20:43;54.13;;;30.25;;
3369;SDS011;42042;51.948;7.628;2022-12-13T03:23:11;57.38;;;29.65;;
3369;SDS011;42042;51.948;7.628;2022-12-13T03:25:39;47.05;;;27.27;;
3369;SDS011;42042;51.948;7.628;2022-12-13T03:28:06;42.75;;;25.98;;
3369;SDS011;42042;51.948;7.628;2022-12-13T03:30:33;58.10;;;27.63;;
3369;SDS011;42042;51.948;7.628;2022-12-13T03:33:00;57.33;;;28.17;;
3369;SDS011;42042;51.948;7.628;2022-12-13T03:35:28;52.83;;;27.20;;
3369;SDS011;42042;51.948;7.628;2022-12-13T03:37:56;48.40;;;27.45;;
3369;SDS011;42042;51.948;7.628;2022-12-13T03:40:26;50.67;;;28.33;;
3369;SDS011;42042;51.948;7.628;2022-12-13T03:42:54;52.67;;;27.85;;
3369;SDS011;42042;51.948;7.628;2022-12-13T03:45:21;59.63;;;31.45;;
3369;SDS011;42042;51.948;7.628;2022-12-13T03:47:48;51.97;;;29.92;;
3369;SDS011;42042;51.948;7.628;2022-12-13T03:50:15;53.63;;;28.67;;
3369;SDS011;42042;51.948;7.628;2022-12-13T03:52:42;44.67;;;26.35;;
3369;SDS011;42042;51.948;7.628;2022-12-13T03:55:12;47.55;;;28.42;;
3369;SDS011;42042;51.948;7.628;2022-12-13T03:57:40;50.33;;;28.48;;
3369;SDS011;42042;51.948;7.628;2022-12-13T04:00:07;47.35;;;27.42;;
3369;SDS011;42042;51.948;7.628;2022-12-13T04:02:35;47.83;;;26.40;;
3369;SDS011;42042;51.948;7.628;2022-12-13T04:05:02;47.20;;;28.30;;
3369;SDS011;42042;51.948;7.628;2022-12-13T04:07:29;44.50;;;25.35;;
3369;SDS011;42042;51.948;7.628;2022-12-13T04:09:56;44.22;;;26.13;;
3369;SDS011;42042;51.948;7.628;2022-12-13T04:12:25;43.33;;;26.25;;
3369;SDS011;42042;51.948;7.628;2022-12-13T04:15:09;42.42;;;25.27;;
3369;SDS011;42042;51.948;7.628;2022-12-13T04:17:37;40.53;;;25.42;;
3369;SDS011;42042;51.948;7.628;2022-12-13T04:20:04;51.13;;;26.10;;
3369;SDS011;42042;51.948;7.628;2022-12-13T04:22:31;46.38;;;25.58;;
3369;SDS011;42042;51.948;7.628;2022-12-13T04:24:59;45.35;;;25.23;;
3369;SDS011;42042;51.948;7.628;2022-12-13T04:27:27;45.42;;;26.63;;
3369;SDS011;42042;51.948;7.628;2022-12-13T04:29:54;40.38;;;25.50;;
3369;SDS011;42042;51.948;7.628;2022-12-13T04:32:22;51.00;;;27.73;;
3369;SDS011;42042;51.948;7.628;2022-12-13T04:34:49;49.13;;;26.67;;
3369;SDS011;42042;51.948;7.628;2022-12-13T04:37:16;49.53;;;25.58;;
3369;SDS011;42042;51.948;7.628;2022-12-13T04:39:43;47.30;;;25.65;;
3369;SDS011;42042;51.948;7.628;2022-12-13T04:42:10;46.45;;;26.60;;
3369;SDS011;42042;51.948;7.628;2022-12-13T04:44:39;47.92;;;25.58;;
3369;SDS011;42042;51.948;7.628;2022-12-13T04:47:06;50.50;;;28.30;;
3369;SDS011;42042;51.948;7.628;2022-12-13T04:49:33;47.78;;;27.02;;
3369;SDS011;42042;51.948;7.628;2022-12-13T04:52:01;47.42;;;24.02;;
3369;SDS011;42042;51.948;7.628;2022-12-13T04:54:28;43.15;;;26.00;;
3369;SDS011;42042;51.948;7.628;2022-12-13T04:56:56;40.10;;;22.50;;
3369;SDS011;42042;51.948;7.628;2022-12-13T04:59:23;47.58;;;26.23;;
3369;SDS011;42042;51.948;7.628;2022-12-13T05:01:52;44.63;;;26.92;;
3369;SDS011;42042;51.948;7.628;2022-12-13T05:04:19;42.22;;;24.65;;
3369;SDS011;42042;51.948;7.628;2022-12-13T05:06:46;47.20;;;25.95;;
3369;SDS011;42042;51.948;7.628;2022-12-13T05:09:13;44.05;;;22.65;;
3369;SDS011;42042;51.948;7.628;2022-12-13T05:11:41;39.90;;;23.45;;
3369;SDS011;42042;51.948;7.628;2022-12-13T05:14:08;48.55;;;23.80;;
3369;SDS011;42042;51.948;7.628;2022-12-13T05:16:35;45.33;;;24.52;;
3369;SDS011;42042;51.948;7.628;2022-12-13T05:19:03;51.90;;;27.30;;
3369;SDS011;42042;51.948;7.628;2022-12-13T05:21:31;49.85;;;25.30;;
3369;SDS011;42042;51.948;7.628;2022-12-13T05:23:59;73.32;;;27.15;;
3369;SDS011;42042;51.948;7.628;2022-12-13T05:26:26;37.15;;;21.75;;
3369;SDS011;42042;51.948;7.628;2022-12-13T05:28:54;39.10;;;23.15;;
3369;SDS011;42042;51.948;7.628;2022-12-13T05:31:21;40.50;;;23.77;;
3369;SDS011;42042;51.948;7.628;2022-12-13T05:33:48;49.00;;;26.35;;
3369;SDS011;42042;51.948;7.628;2022-12-13T05:36:17;48.10;;;24.65;;
3369;SDS011;42042;51.948;7.628;2022-12-13T05:38:46;48.83;;;25.50;;
3369;SDS011;42042;51.948;7.628;2022-12-13T05:41:14;47.58;;;26.77;;
3369;SDS011;42042;51.948;7.628;2022-12-13T05:43:42;52.65;;;28.42;;
3369;SDS011;42042;51.948;7.628;2022-12-13T05:46:10;44.13;;;28.05;;
3369;SDS011;42042;51.948;7.628;2022-12-13T05:48:37;47.15;;;27.05;;
3369;SDS011;42042;51.948;7.628;2022-12-13T05:51:05;54.72;;;29.52;;
3369;SDS011;42042;51.948;7.628;2022-12-13T05:53:33;53.85;;;29.58;;
3369;SDS011;42042;51.948;7.628;2022-12-13T05:56:00;61.00;;;30.30;;
3369;SDS011;42042;51.948;7.628;2022-12-13T05:58:28;62.42;;;30.48;;
3369;SDS011;42042;51.948;7.628;2022-12-13T06:01:02;54.03;;;30.10;;
3369;SDS011;42042;51.948;7.628;2022-12-13T06:03:29;55.13;;;29.35;;
3369;SDS011;42042;51.948;7.628;2022-12-13T06:05:59;59.50;;;28.50;;
3369;SDS011;42042;51.948;7.628;2022-12-13T06:08:26;59.10;;;31.33;;
3369;SDS011;42042;51.948;7.628;2022-12-13T06:10:55;59.13;;;29.63;;
3369;SDS011;42042;51.948;7.628;2022-12-13T06:13:22;52.40;;;29.88;;
3369;SDS011;42042;51.948;7.628;2022-12-13T06:15:49;68.07;;;31.27;;
3369;SDS011;42042;51.948;7.628;2022-12-13T06:18:23;54.97;;;30.02;;
3369;SDS011;42042;51.948;7.628;2022-12-13T06:20:54;53.67;;;29.85;;
3369;SDS011;42042;51.948;7.628;2022-12-13T06:23:22;50.97;;;28.80;;
3369;SDS011;42042;51.948;7.628;2022-12-13T06:25:49;56.25;;;31.02;;
3369;SDS011;42042;51.948;7.628;2022-12-13T06:28:18;63.78;;;32.50;;
3369;SDS011;42042;51.948;7.628;2022-12-13T06:30:45;56.05;;;30.23;;
3369;SDS011;42042;51.948;7.628;2022-12-13T06:33:16;58.50;;;28.92;;
3369;SDS011;42042;51.948;7.628;2022-12-13T06:35:43;55.72;;;30.50;;
3369;SDS011;42042;51.948;7.628;2022-12-13T06:38:10;55.38;;;32.25;;
3369;SDS011;42042;51.948;7.628;2022-12-13T06:40:38;68.43;;;32.85;;
3369;SDS011;42042;51.948;7.628;2022-12-13T06:43:06;63.40;;;32.80;;
3369;SDS011;42042;51.948;7.628;2022-12-13T06:45:35;64.45;;;31.90;;
3369;SDS011;42042;51.948;7.628;2022-12-13T06:48:04;66.55;;;32.38;;
3369;SDS011;42042;51.948;7.628;2022-12-13T06:50:31;56.53;;;32.53;;
3369;SDS011;42042;51.948;7.628;2022-12-13T06:52:58;62.50;;;32.20;;
3369;SDS011;42042;51.948;7.628;2022-12-13T06:55:26;60.85;;;31.10;;
3369;SDS011;42042;51.948;7.628;2022-12-13T06:57:53;51.47;;;29.52;;
3369;SDS011;42042;51.948;7.628;2022-12-13T07:00:20;67.10;;;33.35;;
3369;SDS011;42042;51.948;7.628;2022-12-13T07:02:51;59.65;;;30.67;;
3369;SDS011;42042;51.948;7.628;2022-12-13T07:05:19;57.03;;;32.40;;
3369;SDS011;42042;51.948;7.628;2022-12-13T07:07:46;70.18;;;31.55;;
3369;SDS011;42042;51.948;7.628;2022-12-13T07:10:13;50.40;;;29.88;;
3369;SDS011;42042;51.948;7.628;2022-12-13T07:12:40;60.63;;;31.58;;
3369;SDS011;42042;51.948;7.628;2022-12-13T07:15:08;67.15;;;32.08;;
3369;SDS011;42042;51.948;7.628;2022-12-13T07:17:35;70.53;;;33.67;;
3369;SDS011;42042;51.948;7.628;2022-12-13T07:20:04;61.58;;;35.65;;
3369;SDS011;42042;51.948;7.628;2022-12-13T07:22:33;56.08;;;33.63;;
3369;SDS011;42042;51.948;7.628;2022-12-13T07:25:00;64.82;;;32.95;;
3369;SDS011;42042;51.948;7.628;2022-12-13T07:27:28;64.47;;;33.78;;
3369;SDS011;42042;51.948;7.628;2022-12-13T07:29:56;61.55;;;32.60;;
3369;SDS011;42042;51.948;7.628;2022-12-13T07:32:23;62.13;;;31.00;;
3369;SDS011;42042;51.948;7.628;2022-12-13T07:34:50;59.75;;;33.17;;
3369;SDS011;42042;51.948;7.628;2022-12-13T07:37:19;63.40;;;34.67;;
3369;SDS011;42042;51.948;7.628;2022-12-13T07:39:46;65.07;;;32.15;;
3369;SDS011;42042;51.948;7.628;2022-12-13T07:42:14;53.85;;;31.63;;
3369;SDS011;42042;51.948;7.628;2022-12-13T07:44:42;67.85;;;34.42;;
3369;SDS011;42042;51.948;7.628;2022-12-13T07:47:09;62.60;;;29.77;;
3369;SDS011;42042;51.948;7.628;2022-12-13T07:49:36;66.45;;;32.25;;
3369;SDS011;42042;51.948;7.628;2022-12-13T07:52:04;64.00;;;30.92;;
3369;SDS011;42042;51.948;7.628;2022-12-13T07:54:37;54.67;;;30.48;;
3369;SDS011;42042;51.948;7.628;2022-12-13T07:57:04;69.45;;;33.72;;
3369;SDS011;42042;51.948;7.628;2022-12-13T07:59:31;68.45;;;35.35;;
3369;SDS011;42042;51.948;7.628;2022-12-13T08:01:58;75.70;;;36.25;;
3369;SDS011;42042;51.948;7.628;2022-12-13T08:04:25;65.70;;;34.45;;
3369;SDS011;42042;51.948;7.628;2022-12-13T08:06:53;54.40;;;32.10;;
3369;SDS011;42042;51.948;7.628;2022-12-13T08:09:20;57.33;;;33.22;;
3369;SDS011;42042;51.948;7.628;2022-12-13T08:11:49;66.88;;;34.92;;
3369;SDS011;42042;51.948;7.628;2022-12-13T08:14:17;66.07;;;32.83;;
3369;SDS011;42042;51.948;7.628;2022-12-13T08:16:44;69.18;;;35.60;;
3369;SDS011;42042;51.948;7.628;2022-12-13T08:19:11;62.60;;;35.20;;
3369;SDS011;42042;51.948;7.628;2022-12-13T08:21:39;60.78;;;33.92;;
3369;SDS011;42042;51.948;7.628;2022-12-13T08:24:06;71.07;;;34.63;;
3369;SDS011;42042;51.948;7.628;2022-12-13T08:26:34;56.85;;;31.77;;
3369;SDS011;42042;51.948;7.628;2022-12-13T08:29:03;66.30;;;36.35;;
3369;SDS011;42042;51.948;7.628;2022-12-13T08:31:30;65.78;;;33.25;;
3369;SDS011;42042;51.948;7.628;2022-12-13T08:33:57;59.40;;;33.28;;
3369;SDS011;42042;51.948;7.628;2022-12-13T08:36:25;53.17;;;30.35;;
3369;SDS011;42042;51.948;7.628;2022-12-13T08:38:53;56.85;;;29.90;;
3369;SDS011;42042;51.948;7.628;2022-12-13T08:41:20;57.28;;;31.45;;
3369;SDS011;42042;51.948;7.628;2022-12-13T08:43:48;60.20;;;31.63;;
3369;SDS011;42042;51.948;7.628;2022-12-13T08:46:16;55.72;;;29.08;;
3369;SDS011;42042;51.948;7.628;2022-12-13T08:48:43;55.67;;;29.63;;
3369;SDS011;42042;51.948;7.628;2022-12-13T08:51:11;51.75;;;30.75;;
3369;SDS011;42042;51.948;7.628;2022-12-13T08:53:39;55.67;;;30.80;;
3369;SDS011;42042;51.948;7.628;2022-12-13T08:56:08;58.47;;;29.33;;
3369;SDS011;42042;51.948;7.628;2022-12-13T08:58:36;51.78;;;32.30;;
3369;SDS011;42042;51.948;7.628;2022-12-13T09:01:04;47.47;;;29.98;;
3369;SDS011;42042;51.948;7.628;2022-12-13T09:03:33;66.32;;;32.55;;
3369;SDS011;42042;51.948;7.628;2022-12-13T09:06:04;52.00;;;28.75;;
3369;SDS011;42042;51.948;7.628;2022-12-13T09:08:32;52.03;;;29.15;;
3369;SDS011;42042;51.948;7.628;2022-12-13T09:10:59;58.97;;;32.90;;
3369;SDS011;42042;51.948;7.628;2022-12-13T09:13:27;52.55;;;30.00;;
3369;SDS011;42042;51.948;7.628;2022-12-13T09:15:55;49.58;;;28.58;;
3369;SDS011;42042;51.948;7.628;2022-12-13T09:18:23;51.75;;;28.88;;
3369;SDS011;42042;51.948;7.628;2022-12-13T09:20:51;57.35;;;30.38;;
3369;SDS011;42042;51.948;7.628;2022-12-13T09:23:18;49.63;;;29.13;;
3369;SDS011;42042;51.948;7.628;2022-12-13T09:25:51;52.95;;;28.33;;
3369;SDS011;42042;51.948;7.628;2022-12-13T09:28:20;56.90;;;29.25;;
3369;SDS011;42042;51.948;7.628;2022-12-13T09:30:48;60.92;;;32.42;;
3369;SDS011;42042;51.948;7.628;2022-12-13T09:33:15;57.97;;;32.45;;
3369;SDS011;42042;51.948;7.628;2022-12-13T09:35:42;64.97;;;33.08;;
3369;SDS011;42042;51.948;7.628;2022-12-13T09:38:12;54.03;;;32.88;;
3369;SDS011;42042;51.948;7.628;2022-12-13T09:40:40;54.33;;;33.13;;
3369;SDS011;42042;51.948;7.628;2022-12-13T09:43:09;61.88;;;31.30;;
3369;SDS011;42042;51.948;7.628;2022-12-13T09:45:38;57.55;;;32.83;;
3369;SDS011;42042;51.948;7.628;2022-12-13T09:48:06;56.17;;;34.17;;
3369;SDS011;42042;51.948;7.628;2022-12-13T09:50:34;60.30;;;32.47;;
3369;SDS011;42042;51.948;7.628;2022-12-13T09:53:03;52.45;;;32.63;;
3369;SDS011;42042;51.948;7.628;2022-12-13T09:55:33;61.30;;;30.50;;
3369;SDS011;42042;51.948;7.628;2022-12-13T09:58:05;61.38;;;34.50;;
3369;SDS011;42042;51.948;7.628;2022-12-13T10:00:33;47.50;;;31.70;;
3369;SDS011;42042;51.948;7.628;2022-12-13T10:03:01;61.22;;;32.22;;
3369;SDS011;42042;51.948;7.628;2022-12-13T10:05:29;54.63;;;30.60;;
3369;SDS011;42042;51.948;7.628;2022-12-13T10:07:57;50.38;;;31.38;;
3369;SDS011;42042;51.948;7.628;2022-12-13T10:10:25;62.85;;;31.75;;
3369;SDS011;42042;51.948;7.628;2022-12-13T10:12:56;51.55;;;31.88;;
3369;SDS011;42042;51.948;7.628;2022-12-13T10:15:24;56.70;;;30.70;;
3369;SDS011;42042;51.948;7.628;2022-12-13T10:23:51;51.25;;;28.80;;
3369;SDS011;42042;51.948;7.628;2022-12-13T10:26:35;60.78;;;30.77;;
3369;SDS011;42042;51.948;7.628;2022-12-13T11:04:29;53.97;;;26.07;;
3369;SDS011;42042;51.948;7.628;2022-12-13T11:10:24;45.63;;;26.20;;
3369;SDS011;42042;51.948;7.628;2022-12-13T11:17:44;42.33;;;25.48;;
3369;SDS011;42042;51.948;7.628;2022-12-13T12:07:39;49.20;;;24.55;;
3369;SDS011;42042;51.948;7.628;2022-12-13T12:10:26;43.90;;;24.95;;
3369;SDS011;42042;51.948;7.628;2022-12-13T12:16:19;35.25;;;21.83;;
3369;SDS011;42042;51.948;7.628;2022-12-13T12:18:58;47.22;;;25.25;;
3369;SDS011;42042;51.948;7.628;2022-12-13T12:21:55;41.65;;;25.42;;
3369;SDS011;42042;51.948;7.628;2022-12-13T12:24:30;47.50;;;25.10;;
3369;SDS011;42042;51.948;7.628;2022-12-13T13:13:04;32.22;;;21.02;;
3369;SDS011;42042;51.948;7.628;2022-12-13T13:37:15;46.15;;;26.20;;
3369;SDS011;42042;51.948;7.628;2022-12-13T14:10:53;42.90;;;25.05;;
3369;SDS011;42042;51.948;7.628;2022-12-13T14:13:50;40.97;;;25.25;;
3369;SDS011;42042;51.948;7.628;2022-12-13T14:19:20;45.17;;;24.10;;
3369;SDS011;42042;51.948;7.628;2022-12-13T14:21:57;42.90;;;26.20;;
3369;SDS011;42042;51.948;7.628;2022-12-13T14:24:31;42.10;;;25.30;;
3369;SDS011;42042;51.948;7.628;2022-12-13T14:27:05;44.85;;;26.80;;
3369;SDS011;42042;51.948;7.628;2022-12-13T14:29:36;39.13;;;23.55;;
3369;SDS011;42042;51.948;7.628;2022-12-13T14:32:07;42.08;;;23.60;;
3369;SDS011;42042;51.948;7.628;2022-12-13T14:34:36;50.10;;;25.58;;
3369;SDS011;42042;51.948;7.628;2022-12-13T14:37:04;44.85;;;25.60;;
3369;SDS011;42042;51.948;7.628;2022-12-13T14:39:31;42.95;;;25.13;;
3369;SDS011;42042;51.948;7.628;2022-12-13T14:42:00;39.53;;;24.30;;
3369;SDS011;42042;51.948;7.628;2022-12-13T14:44:30;40.53;;;24.27;;
3369;SDS011;42042;51.948;7.628;2022-12-13T14:46:58;41.53;;;25.73;;
3369;SDS011;42042;51.948;7.628;2022-12-13T14:49:26;50.83;;;28.63;;
3369;SDS011;42042;51.948;7.628;2022-12-13T14:51:55;41.65;;;24.38;;
3369;SDS011;42042;51.948;7.628;2022-12-13T14:54:26;59.15;;;29.02;;
3369;SDS011;42042;51.948;7.628;2022-12-13T14:56:56;47.60;;;24.55;;
3369;SDS011;42042;51.948;7.628;2022-12-13T14:59:23;49.67;;;26.63;;
3369;SDS011;42042;51.948;7.628;2022-12-13T15:01:57;45.80;;;25.17;;
3369;SDS011;42042;51.948;7.628;2022-12-13T15:04:27;41.53;;;25.67;;
3369;SDS011;42042;51.948;7.628;2022-12-13T15:06:56;45.88;;;26.73;;
3369;SDS011;42042;51.948;7.628;2022-12-13T15:09:24;44.97;;;26.10;;
3369;SDS011;42042;51.948;7.628;2022-12-13T15:11:51;61.22;;;29.48;;
3369;SDS011;42042;51.948;7.628;2022-12-13T15:15:13;56.92;;;33.10;;
3369;SDS011;42042;51.948;7.628;2022-12-13T15:26:45;40.63;;;24.98;;
3369;SDS011;42042;51.948;7.628;2022-12-13T15:35:59;49.45;;;28.67;;
3369;SDS011;42042;51.948;7.628;2022-12-13T15:38:27;56.67;;;28.25;;
3369;SDS011;42042;51.948;7.628;2022-12-13T15:40:54;48.58;;;29.42;;
3369;SDS011;42042;51.948;7.628;2022-12-13T15:43:24;46.60;;;27.10;;
3369;SDS011;42042;51.948;7.628;2022-12-13T15:45:54;47.42;;;28.20;;
3369;SDS011;42042;51.948;7.628;2022-12-13T15:48:23;45.15;;;26.70;;
3369;SDS011;42042;51.948;7.628;2022-12-13T15:51:02;48.20;;;27.02;;
3369;SDS011;42042;51.948;7.628;2022-12-13T15:53:30;50.42;;;25.52;;
3369;SDS011;42042;51.948;7.628;2022-12-13T15:55:58;49.50;;;29.17;;
3369;SDS011;42042;51.948;7.628;2022-12-13T15:58:28;48.40;;;30.02;;
3369;SDS011;42042;51.948;7.628;2022-12-13T16:00:57;57.75;;;29.95;;
3369;SDS011;42042;51.948;7.628;2022-12-13T16:03:29;48.40;;;27.08;;
3369;SDS011;42042;51.948;7.628;2022-12-13T16:05:59;53.80;;;28.92;;
3369;SDS011;42042;51.948;7.628;2022-12-13T16:08:31;55.38;;;30.88;;
3369;SDS011;42042;51.948;7.628;2022-12-13T16:10:59;54.10;;;29.55;;
3369;SDS011;42042;51.948;7.628;2022-12-13T16:13:29;46.42;;;28.10;;
3369;SDS011;42042;51.948;7.628;2022-12-13T16:15:57;53.05;;;32.10;;
3369;SDS011;42042;51.948;7.628;2022-12-13T16:18:27;52.72;;;28.45;;
3369;SDS011;42042;51.948;7.628;2022-12-13T16:20:56;52.40;;;28.00;;
3369;SDS011;42042;51.948;7.628;2022-12-13T16:23:23;53.25;;;29.42;;
3369;SDS011;42042;51.948;7.628;2022-12-13T16:25:50;52.92;;;29.48;;
3369;SDS011;42042;51.948;7.628;2022-12-13T16:28:17;56.00;;;29.30;;
3369;SDS011;42042;51.948;7.628;2022-12-13T16:30:57;50.83;;;28.40;;
3369;SDS011;42042;51.948;7.628;2022-12-13T16:33:25;53.58;;;28.63;;
3369;SDS011;42042;51.948;7.628;2022-12-13T16:35:52;48.60;;;29.45;;
3369;SDS011;42042;51.948;7.628;2022-12-13T16:38:20;49.58;;;27.80;;
3369;SDS011;42042;51.948;7.628;2022-12-13T16:40:47;45.60;;;25.15;;
3369;SDS011;42042;51.948;7.628;2022-12-13T16:43:16;56.25;;;30.27;;
3369;SDS011;42042;51.948;7.628;2022-12-13T16:45:46;51.95;;;27.27;;
3369;SDS011;42042;51.948;7.628;2022-12-13T16:48:15;54.25;;;28.23;;
3369;SDS011;42042;51.948;7.628;2022-12-13T16:50:43;59.90;;;30.15;;
3369;SDS011;42042;51.948;7.628;2022-12-13T16:53:10;48.20;;;27.75;;
3369;SDS011;42042;51.948;7.628;2022-12-13T16:55:37;45.35;;;26.23;;
3369;SDS011;42042;51.948;7.628;2022-12-13T16:58:06;55.78;;;28.40;;
3369;SDS011;42042;51.948;7.628;2022-12-13T17:00:34;46.13;;;24.90;;
3369;SDS011;42042;51.948;7.628;2022-12-13T17:03:03;48.47;;;25.95;;
3369;SDS011;42042;51.948;7.628;2022-12-13T17:05:32;47.30;;;27.42;;
3369;SDS011;42042;51.948;7.628;2022-12-13T17:07:59;48.08;;;25.23;;
3369;SDS011;42042;51.948;7.628;2022-12-13T17:10:27;54.15;;;31.45;;
3369;SDS011;42042;51.948;7.628;2022-12-13T17:12:55;58.35;;;28.35;;
3369;SDS011;42042;51.948;7.628;2022-12-13T17:15:22;47.15;;;25.95;;
3369;SDS011;42042;51.948;7.628;2022-12-13T17:17:49;52.95;;;28.23;;
3369;SDS011;42042;51.948;7.628;2022-12-13T17:20:17;41.85;;;24.70;;
3369;SDS011;42042;51.948;7.628;2022-12-13T17:22:46;42.22;;;27.92;;
3369;SDS011;42042;51.948;7.628;2022-12-13T17:25:13;48.10;;;26.48;;
3369;SDS011;42042;51.948;7.628;2022-12-13T17:27:40;46.08;;;25.63;;
3369;SDS011;42042;51.948;7.628;2022-12-13T17:30:09;49.47;;;26.90;;
3369;SDS011;42042;51.948;7.628;2022-12-13T17:32:37;55.83;;;27.15;;
3369;SDS011;42042;51.948;7.628;2022-12-13T17:35:05;47.10;;;26.90;;
3369;SDS011;42042;51.948;7.628;2022-12-13T17:37:32;53.88;;;27.20;;
3369;SDS011;42042;51.948;7.628;2022-12-13T17:40:01;49.35;;;24.35;;
3369;SDS011;42042;51.948;7.628;2022-12-13T17:42:28;43.10;;;23.63;;
3369;SDS011;42042;51.948;7.628;2022-12-13T17:44:55;46.03;;;25.13;;
3369;SDS011;42042;51.948;7.628;2022-12-13T17:47:22;50.10;;;25.92;;
3369;SDS011;42042;51.948;7.628;2022-12-13T17:49:49;44.00;;;24.42;;
3369;SDS011;42042;51.948;7.628;2022-12-13T17:52:17;42.70;;;24.00;;
3369;SDS011;42042;51.948;7.628;2022-12-13T17:54:44;44.72;;;24.20;;
3369;SDS011;42042;51.948;7.628;2022-12-13T17:57:12;47.92;;;24.90;;
3369;SDS011;42042;51.948;7.628;2022-12-13T17:59:40;44.15;;;24.63;;
3369;SDS011;42042;51.948;7.628;2022-12-13T18:02:08;41.60;;;23.90;;
3369;SDS011;42042;51.948;7.628;2022-12-13T18:04:35;50.53;;;26.20;;
3369;SDS011;42042;51.948;7.628;2022-12-13T18:07:02;44.03;;;22.77;;
3369;SDS011;42042;51.948;7.628;2022-12-13T18:09:30;52.15;;;24.25;;
3369;SDS011;42042;51.948;7.628;2022-12-13T18:11:57;40.03;;;23.30;;
3369;SDS011;42042;51.948;7.628;2022-12-13T18:14:25;45.75;;;26.42;;
3369;SDS011;42042;51.948;7.628;2022-12-13T18:16:53;46.45;;;24.52;;
3369;SDS011;42042;51.948;7.628;2022-12-13T18:19:20;44.78;;;24.00;;
3369;SDS011;42042;51.948;7.628;2022-12-13T18:21:49;49.47;;;24.85;;
3369;SDS011;42042;51.948;7.628;2022-12-13T18:24:17;37.08;;;23.35;;
3369;SDS011;42042;51.948;7.628;2022-12-13T18:26:44;40.17;;;21.83;;